Time;durP1;ratioP1;P1;durP2;ratioP2;P2;SDS_P1;SDS_P2;PMS_P1;PMS_P2;Temp;Humidity;BMP_temperature;BMP_pressure;BME280_temperature;BME280_humidity;BME280_pressure;Samples;Min_cycle;Max_cycle;Signal;HPM_P1;HPM_P2
2023/03/21 00:00:33;;;;;;;10.00;7.60;;;10.70;99.90;;;;;;5050485;28;20503;-76
2023/03/21 00:02:59;;;;;;;12.70;7.20;;;10.80;99.90;;;;;;5050196;28;20859;-75
2023/03/21 00:05:25;;;;;;;14.63;8.13;;;10.70;99.90;;;;;;5050855;28;20416;-75
2023/03/21 00:07:50;;;;;;;11.10;7.30;;;10.80;99.90;;;;;;5046273;28;20173;-76
2023/03/21 00:10:16;;;;;;;12.30;7.73;;;10.70;99.90;;;;;;5050597;28;20186;-76
2023/03/21 00:12:42;;;;;;;11.13;6.50;;;10.70;99.90;;;;;;5049194;28;20262;-76
2023/03/21 00:15:10;;;;;;;8.50;6.47;;;10.70;99.90;;;;;;5050534;28;20420;-76
2023/03/21 00:17:38;;;;;;;15.53;6.90;;;10.70;99.90;;;;;;5065897;28;20284;-75
2023/03/21 00:20:05;;;;;;;14.67;7.20;;;10.80;99.90;;;;;;5050344;28;20427;-75
2023/03/21 00:22:34;;;;;;;10.10;6.50;;;10.70;99.90;;;;;;5032667;28;20830;-75
2023/03/21 00:25:00;;;;;;;12.60;6.97;;;10.70;99.90;;;;;;5048669;28;20518;-75
2023/03/21 00:27:26;;;;;;;12.60;7.20;;;10.80;99.90;;;;;;5050233;28;20816;-76
2023/03/21 00:29:52;;;;;;;11.40;6.63;;;10.70;99.90;;;;;;5049561;28;20412;-74
2023/03/21 00:32:20;;;;;;;10.13;6.70;;;10.70;99.90;;;;;;5049469;28;20420;-76
2023/03/21 00:34:46;;;;;;;13.60;6.60;;;10.80;99.90;;;;;;5048973;28;20447;-75
2023/03/21 00:37:15;;;;;;;10.90;6.53;;;10.80;99.90;;;;;;5050123;28;20486;-75
2023/03/21 00:39:47;;;;;;;9.93;6.37;;;10.80;99.90;;;;;;5056878;28;20436;-75
2023/03/21 00:42:14;;;;;;;8.60;6.43;;;10.80;99.90;;;;;;5050135;28;20475;-75
2023/03/21 00:44:41;;;;;;;10.20;6.03;;;10.80;99.90;;;;;;5049796;28;20444;-76
2023/03/21 00:47:08;;;;;;;10.13;6.07;;;10.80;99.90;;;;;;5049947;28;20866;-76
2023/03/21 00:49:34;;;;;;;9.63;6.37;;;10.80;99.90;;;;;;5049689;28;20474;-76
2023/03/21 00:52:00;;;;;;;11.33;5.80;;;10.80;99.90;;;;;;5048990;28;20924;-75
2023/03/21 00:54:26;;;;;;;10.57;5.73;;;10.90;99.90;;;;;;5049796;28;20210;-76
2023/03/21 00:56:52;;;;;;;9.30;5.93;;;10.80;99.90;;;;;;5049601;28;20465;-75
2023/03/21 00:59:17;;;;;;;12.03;5.80;;;10.90;99.90;;;;;;5049813;28;20421;-76
2023/03/21 01:01:45;;;;;;;9.37;6.13;;;10.80;99.90;;;;;;5049580;28;20895;-76
2023/03/21 01:04:13;;;;;;;12.67;5.60;;;10.80;99.90;;;;;;5048199;28;21199;-76
2023/03/21 01:06:40;;;;;;;8.50;5.70;;;10.80;99.90;;;;;;5048662;28;20503;-76
2023/03/21 01:09:19;;;;;;;10.37;5.67;;;10.80;99.90;;;;;;5043293;28;20477;-77
2023/03/21 01:11:46;;;;;;;10.80;6.53;;;10.80;99.90;;;;;;5049444;28;20848;-76
2023/03/21 01:14:13;;;;;;;8.03;5.10;;;10.80;99.90;;;;;;5049286;28;20444;-76
2023/03/21 01:16:39;;;;;;;8.03;5.53;;;10.80;99.90;;;;;;5046977;28;20416;-76
2023/03/21 01:19:07;;;;;;;8.20;4.97;;;10.80;99.90;;;;;;5049304;28;20409;-75
2023/03/21 01:21:33;;;;;;;8.50;5.33;;;10.90;99.90;;;;;;5031164;28;20416;-76
2023/03/21 01:24:00;;;;;;;14.23;6.77;;;10.80;99.90;;;;;;5049211;28;20531;-76
2023/03/21 01:26:26;;;;;;;10.30;6.47;;;10.80;99.90;;;;;;5049342;28;20424;-76
2023/03/21 01:28:52;;;;;;;11.03;7.27;;;10.80;99.90;;;;;;5047911;28;20774;-76
2023/03/21 01:31:18;;;;;;;13.50;6.40;;;10.80;99.90;;;;;;5049071;28;20424;-76
2023/03/21 01:33:44;;;;;;;13.83;7.27;;;10.80;99.90;;;;;;5048853;28;20594;-76
2023/03/21 01:36:22;;;;;;;8.83;6.87;;;10.70;99.90;;;;;;5048318;28;20518;-76
2023/03/21 01:38:47;;;;;;;12.93;7.50;;;10.70;99.90;;;;;;5054697;28;20185;-76
2023/03/21 01:41:19;;;;;;;12.03;7.47;;;10.90;99.90;;;;;;5047431;28;20481;-76
2023/03/21 01:43:45;;;;;;;10.53;7.33;;;10.80;99.90;;;;;;5048203;28;20210;-76
2023/03/21 01:46:48;;;;;;;17.83;8.53;;;10.80;99.90;;;;;;5049392;28;20408;-75
2023/03/21 01:49:33;;;;;;;14.17;7.20;;;10.80;99.90;;;;;;5048353;28;20191;-75
2023/03/21 01:52:06;;;;;;;11.37;7.87;;;10.80;99.90;;;;;;5049532;28;20408;-76
2023/03/21 01:54:36;;;;;;;9.50;7.00;;;10.80;99.90;;;;;;5049172;28;20674;-76
2023/03/21 01:57:08;;;;;;;15.27;7.50;;;10.80;99.90;;;;;;5048968;28;20459;-76
2023/03/21 01:59:40;;;;;;;16.50;8.47;;;10.80;99.90;;;;;;5047885;28;20458;-76
2023/03/21 02:02:10;;;;;;;15.80;7.37;;;10.80;99.90;;;;;;5049496;28;20456;-76
2023/03/21 02:04:37;;;;;;;12.33;7.97;;;10.80;99.90;;;;;;5047703;28;20436;-76
2023/03/21 02:07:06;;;;;;;13.63;8.27;;;10.80;99.90;;;;;;5047854;28;21105;-76
2023/03/21 02:09:35;;;;;;;12.27;8.33;;;10.70;99.90;;;;;;5049031;28;20430;-76
2023/03/21 02:12:02;;;;;;;11.90;7.73;;;10.80;99.90;;;;;;5047902;28;20424;-76
2023/03/21 02:14:31;;;;;;;11.70;8.47;;;10.70;99.90;;;;;;5048903;28;20432;-76
2023/03/21 02:17:01;;;;;;;11.27;8.57;;;10.80;99.90;;;;;;5048726;28;20416;-76
2023/03/21 02:19:57;;;;;;;17.27;9.00;;;10.80;99.90;;;;;;5048739;28;20412;-76
2023/03/21 02:22:26;;;;;;;10.90;7.97;;;10.80;99.90;;;;;;5044415;28;20874;-76
2023/03/21 02:25:17;;;;;;;13.27;8.53;;;10.80;99.90;;;;;;5028648;28;20440;-76
2023/03/21 02:27:57;;;;;;;13.30;8.20;;;10.80;99.90;;;;;;5028588;28;20417;-76
2023/03/21 02:30:48;;;;;;;13.47;8.43;;;10.70;99.90;;;;;;5028699;28;20479;-76
2023/03/21 02:33:44;;;;;;;11.60;8.50;;;10.70;99.90;;;;;;5028680;28;20445;-76
2023/03/21 02:36:24;;;;;;;13.90;8.03;;;10.70;99.90;;;;;;5028000;28;21242;-77
2023/03/21 02:39:13;;;;;;;11.60;8.60;;;10.80;99.90;;;;;;5048879;28;20468;-76
2023/03/21 02:42:02;;;;;;;11.73;7.83;;;10.70;99.90;;;;;;5068432;28;20454;-76
2023/03/21 02:44:40;;;;;;;12.00;8.50;;;10.70;99.90;;;;;;5067196;28;20441;-76
2023/03/21 02:47:19;;;;;;;12.53;8.47;;;10.60;99.90;;;;;;5067077;28;20442;-76
2023/03/21 02:49:54;;;;;;;14.70;9.70;;;10.60;99.90;;;;;;5068562;28;20415;-76
2023/03/21 02:52:28;;;;;;;15.17;9.27;;;10.70;99.90;;;;;;5067485;28;20433;-76
2023/03/21 02:54:56;;;;;;;14.37;9.77;;;10.60;99.90;;;;;;5070534;28;20438;-75
2023/03/21 02:57:22;;;;;;;9.97;8.23;;;10.70;99.90;;;;;;5072194;28;20423;-76
2023/03/21 02:59:50;;;;;;;13.40;9.30;;;10.60;99.90;;;;;;5070992;28;20446;-76
2023/03/21 03:02:21;;;;;;;15.30;9.03;;;10.60;99.90;;;;;;5071366;28;20463;-76
2023/03/21 03:04:47;;;;;;;11.20;8.60;;;10.60;99.90;;;;;;5071938;28;20848;-76
2023/03/21 03:07:13;;;;;;;16.10;10.57;;;10.80;99.90;;;;;;5070559;28;20510;-75
2023/03/21 03:10:14;;;;;;;14.10;9.40;;;10.60;99.90;;;;;;5072156;28;20169;-76
2023/03/21 03:13:05;;;;;;;13.67;9.60;;;10.50;99.90;;;;;;5072080;28;20206;-76
2023/03/21 03:15:55;;;;;;;14.43;9.03;;;10.70;99.90;;;;;;5055210;28;20415;-75
2023/03/21 03:18:42;;;;;;;14.40;9.97;;;10.60;99.90;;;;;;5071877;28;20468;-76
2023/03/21 03:21:19;;;;;;;21.17;10.30;;;10.70;99.90;;;;;;5058192;28;20427;-76
2023/03/21 03:23:56;;;;;;;15.43;8.50;;;10.60;99.90;;;;;;5033783;28;20527;-76
2023/03/21 03:26:27;;;;;;;15.80;10.30;;;10.60;99.90;;;;;;5051993;28;20408;-76
2023/03/21 03:28:58;;;;;;;12.10;9.23;;;10.60;99.90;;;;;;5051745;28;20499;-75
2023/03/21 03:31:29;;;;;;;15.70;8.90;;;10.60;99.90;;;;;;5051733;28;20424;-76
2023/03/21 03:33:59;;;;;;;13.80;8.63;;;10.60;99.90;;;;;;5050254;28;20775;-76
2023/03/21 03:36:33;;;;;;;15.87;9.60;;;10.60;99.90;;;;;;5050246;28;20408;-77
2023/03/21 03:39:03;;;;;;;13.37;9.00;;;10.50;99.90;;;;;;5062721;28;20423;-76
2023/03/21 03:41:30;;;;;;;14.03;8.93;;;10.50;99.90;;;;;;5071037;28;20411;-76
2023/03/21 03:44:00;;;;;;;15.53;9.00;;;10.50;99.90;;;;;;5069962;28;20435;-76
2023/03/21 03:46:35;;;;;;;14.27;9.87;;;10.50;99.90;;;;;;5071744;28;20425;-76
2023/03/21 03:49:14;;;;;;;15.80;9.03;;;10.50;99.90;;;;;;5071096;28;20486;-76
2023/03/21 03:51:59;;;;;;;11.70;8.10;;;10.50;99.90;;;;;;5069957;28;20438;-76
2023/03/21 03:54:35;;;;;;;14.80;8.67;;;10.60;99.90;;;;;;5071007;28;20434;-76
2023/03/21 03:57:03;;;;;;;13.33;9.20;;;10.80;99.90;;;;;;5053117;28;20409;-76
2023/03/21 03:59:29;;;;;;;16.23;10.47;;;10.40;99.90;;;;;;5071169;28;20403;-76
2023/03/21 04:01:54;;;;;;;12.90;8.37;;;10.50;99.90;;;;;;5071181;28;20477;-76
2023/03/21 04:04:21;;;;;;;13.10;8.90;;;10.60;99.90;;;;;;5070573;28;20189;-76
2023/03/21 04:06:50;;;;;;;11.60;8.43;;;10.50;99.90;;;;;;5070344;28;20862;-76
2023/03/21 04:09:17;;;;;;;11.90;8.33;;;10.70;99.90;;;;;;5070049;28;20928;-76
2023/03/21 04:11:43;;;;;;;12.40;8.90;;;10.50;99.90;;;;;;5070895;28;20430;-76
2023/03/21 04:14:09;;;;;;;14.10;8.67;;;10.50;99.90;;;;;;5070751;28;20435;-76
2023/03/21 04:16:35;;;;;;;15.70;9.57;;;10.50;99.90;;;;;;5069864;28;20464;-76
2023/03/21 04:19:01;;;;;;;18.23;10.20;;;10.50;99.90;;;;;;5070623;28;20407;-76
2023/03/21 04:21:27;;;;;;;12.33;8.13;;;10.40;99.90;;;;;;5055982;28;20213;-76
2023/03/21 04:23:53;;;;;;;14.20;7.67;;;10.50;99.90;;;;;;5049211;28;20900;-76
2023/03/21 04:26:21;;;;;;;11.10;8.80;;;10.50;99.90;;;;;;5050931;28;20517;-76
2023/03/21 04:28:47;;;;;;;14.33;8.87;;;10.40;99.90;;;;;;5049342;28;20415;-78
2023/03/21 04:31:13;;;;;;;14.63;9.03;;;10.40;99.90;;;;;;5050530;28;20508;-75
2023/03/21 04:33:39;;;;;;;16.07;8.50;;;10.50;99.90;;;;;;5050465;28;20428;-76
2023/03/21 04:36:08;;;;;;;12.50;8.93;;;10.40;99.90;;;;;;5049602;28;20475;-77
2023/03/21 04:38:35;;;;;;;16.57;9.70;;;10.50;99.90;;;;;;5057334;28;20945;-76
2023/03/21 04:41:01;;;;;;;9.97;8.40;;;10.40;99.90;;;;;;5070660;28;20414;-76
2023/03/21 04:43:27;;;;;;;13.47;8.37;;;10.50;99.90;;;;;;5069659;28;20459;-76
2023/03/21 04:45:54;;;;;;;16.50;9.30;;;10.50;99.90;;;;;;5071433;28;20434;-76
2023/03/21 04:48:23;;;;;;;15.00;9.83;;;10.50;99.90;;;;;;5070352;28;20403;-76
2023/03/21 04:50:49;;;;;;;12.07;8.97;;;10.50;99.90;;;;;;5068896;28;20833;-76
2023/03/21 04:53:15;;;;;;;14.43;9.23;;;10.50;99.90;;;;;;5068704;28;20467;-76
2023/03/21 04:55:41;;;;;;;16.10;8.57;;;10.70;99.90;;;;;;5070393;28;20491;-76
2023/03/21 04:58:07;;;;;;;17.97;9.60;;;10.50;99.90;;;;;;5070107;28;20538;-76
2023/03/21 05:00:37;;;;;;;12.93;9.00;;;10.50;99.90;;;;;;5069959;28;20185;-76
2023/03/21 05:03:09;;;;;;;17.07;9.80;;;10.40;99.90;;;;;;5068369;28;20462;-76
2023/03/21 05:05:38;;;;;;;15.73;9.60;;;10.40;99.90;;;;;;5070099;28;20415;-76
2023/03/21 05:08:04;;;;;;;17.13;10.07;;;10.40;99.90;;;;;;5068283;28;20893;-76
2023/03/21 05:10:31;;;;;;;19.47;9.53;;;10.30;99.90;;;;;;5068333;28;20526;-76
2023/03/21 05:12:56;;;;;;;12.90;9.70;;;10.30;99.90;;;;;;5069518;28;20427;-76
2023/03/21 05:15:22;;;;;;;11.57;8.33;;;10.30;99.90;;;;;;5069617;28;21023;-76
2023/03/21 05:17:48;;;;;;;12.60;8.90;;;10.40;99.90;;;;;;5069354;28;20605;-76
2023/03/21 05:20:15;;;;;;;18.53;10.03;;;10.40;99.90;;;;;;5064879;28;20257;-76
2023/03/21 05:22:41;;;;;;;16.40;9.30;;;10.40;99.90;;;;;;5049420;28;20209;-76
2023/03/21 05:25:08;;;;;;;16.20;9.67;;;10.40;99.90;;;;;;5049581;28;20440;-76
2023/03/21 05:27:35;;;;;;;15.80;8.50;;;10.50;99.90;;;;;;5047894;28;20416;-76
2023/03/21 05:30:11;;;;;;;13.00;9.27;;;10.40;99.90;;;;;;5049381;28;20420;-76
2023/03/21 05:32:37;;;;;;;12.13;8.70;;;10.40;99.90;;;;;;5049444;28;20412;-76
2023/03/21 05:35:03;;;;;;;14.33;10.10;;;10.40;99.90;;;;;;5045949;28;20479;-76
2023/03/21 05:37:29;;;;;;;12.47;8.03;;;10.40;99.90;;;;;;5049169;28;20792;-76
2023/03/21 05:39:55;;;;;;;11.03;9.10;;;10.40;99.90;;;;;;5068188;28;20520;-76
2023/03/21 05:42:21;;;;;;;17.00;9.70;;;10.50;99.90;;;;;;5050161;28;20578;-76
2023/03/21 05:44:47;;;;;;;12.90;9.07;;;10.40;99.90;;;;;;5047255;28;20557;-76
2023/03/21 05:47:14;;;;;;;14.43;8.40;;;10.50;99.90;;;;;;5048871;28;20464;-76
2023/03/21 05:49:40;;;;;;;13.70;9.53;;;10.50;99.90;;;;;;5030855;28;20265;-76
2023/03/21 05:52:06;;;;;;;13.73;8.53;;;10.50;99.90;;;;;;5047842;28;20440;-76
2023/03/21 05:54:32;;;;;;;13.40;8.93;;;10.60;99.90;;;;;;5047696;28;20435;-76
2023/03/21 05:56:57;;;;;;;11.83;9.07;;;10.60;99.90;;;;;;5048900;28;20412;-76
2023/03/21 05:59:23;;;;;;;11.33;8.33;;;10.50;99.90;;;;;;5048961;28;20177;-76
2023/03/21 06:01:49;;;;;;;14.30;8.37;;;10.60;99.90;;;;;;5047815;28;20217;-76
2023/03/21 06:04:15;;;;;;;13.13;8.20;;;10.60;99.90;;;;;;5048634;28;20251;-76
2023/03/21 06:06:40;;;;;;;14.30;8.00;;;10.50;99.90;;;;;;5044787;28;20185;-76
2023/03/21 06:09:06;;;;;;;12.30;7.70;;;10.50;99.90;;;;;;5046787;28;20503;-76
2023/03/21 06:11:35;;;;;;;12.70;7.93;;;10.50;99.90;;;;;;5047377;28;20246;-76
2023/03/21 06:14:01;;;;;;;14.27;8.10;;;10.50;99.90;;;;;;5047930;28;20288;-76
2023/03/21 06:16:27;;;;;;;14.23;9.13;;;10.50;99.90;;;;;;5048967;28;20404;-76
2023/03/21 06:18:54;;;;;;;13.40;7.73;;;10.50;99.90;;;;;;5046757;28;21007;-76
2023/03/21 06:21:20;;;;;;;14.60;7.70;;;10.50;99.90;;;;;;5048183;28;20444;-76
2023/03/21 06:23:50;;;;;;;10.80;6.90;;;10.60;99.90;;;;;;5048447;28;20526;-76
2023/03/21 06:26:21;;;;;;;11.90;7.70;;;10.60;99.90;;;;;;5048977;28;20455;-76
2023/03/21 06:28:48;;;;;;;10.83;7.50;;;10.50;99.90;;;;;;5051078;28;20422;-76
2023/03/21 06:31:14;;;;;;;10.80;7.73;;;10.50;99.90;;;;;;5055216;28;20412;-77
2023/03/21 06:33:40;;;;;;;10.73;7.50;;;10.50;99.90;;;;;;5055077;28;20489;-76
2023/03/21 06:36:06;;;;;;;11.33;7.67;;;10.70;99.90;;;;;;5054579;28;20424;-76
2023/03/21 06:38:32;;;;;;;16.00;7.70;;;10.60;99.90;;;;;;5055022;28;20515;-76
2023/03/21 06:40:57;;;;;;;9.67;6.90;;;10.60;99.90;;;;;;5055233;28;20503;-76
2023/03/21 06:43:24;;;;;;;12.63;7.20;;;10.60;99.90;;;;;;5054858;28;20724;-76
2023/03/21 06:45:49;;;;;;;9.70;7.00;;;10.60;99.90;;;;;;5055446;28;20181;-76
2023/03/21 06:48:15;;;;;;;13.40;8.10;;;10.60;99.90;;;;;;5054975;28;20955;-76
2023/03/21 06:50:41;;;;;;;13.80;7.23;;;10.60;99.90;;;;;;5054984;28;20231;-76
2023/03/21 06:53:07;;;;;;;14.33;7.53;;;10.70;99.90;;;;;;5054812;28;20204;-76
2023/03/21 06:55:33;;;;;;;12.90;7.80;;;10.60;99.90;;;;;;5055348;28;20412;-76
2023/03/21 06:57:58;;;;;;;9.70;7.13;;;10.70;99.90;;;;;;5054849;28;20874;-76
2023/03/21 07:00:24;;;;;;;13.27;7.93;;;10.70;99.90;;;;;;5056502;28;20193;-75
2023/03/21 07:02:50;;;;;;;10.70;7.33;;;10.70;99.90;;;;;;5056117;28;20205;-75
2023/03/21 07:05:16;;;;;;;10.03;6.67;;;10.70;99.90;;;;;;5056301;28;20511;-75
2023/03/21 07:07:42;;;;;;;13.07;7.30;;;10.70;99.90;;;;;;5054013;28;20432;-76
2023/03/21 07:10:09;;;;;;;13.20;6.37;;;10.70;99.90;;;;;;5054738;28;20412;-75
2023/03/21 07:12:35;;;;;;;9.97;6.70;;;10.70;99.90;;;;;;5055847;28;20483;-76
2023/03/21 07:15:05;;;;;;;15.37;7.00;;;10.70;99.90;;;;;;5054675;28;20432;-75
2023/03/21 07:17:31;;;;;;;10.43;5.80;;;10.70;99.90;;;;;;5056036;28;20510;-75
2023/03/21 07:19:58;;;;;;;12.07;6.33;;;10.70;99.90;;;;;;5055957;28;20404;-75
2023/03/21 07:22:23;;;;;;;8.40;7.10;;;10.80;99.90;;;;;;5055679;28;20456;-75
2023/03/21 07:24:49;;;;;;;9.30;6.30;;;10.90;99.90;;;;;;5055771;28;20994;-75
2023/03/21 07:27:17;;;;;;;8.97;6.40;;;10.60;99.90;;;;;;5054760;28;21104;-75
2023/03/21 07:29:43;;;;;;;9.47;5.93;;;10.70;99.90;;;;;;5054343;28;20230;-76
2023/03/21 07:32:10;;;;;;;12.33;6.57;;;10.70;99.90;;;;;;5055939;28;20427;-75
2023/03/21 07:34:36;;;;;;;9.73;5.57;;;10.80;99.90;;;;;;5055436;28;20442;-75
2023/03/21 07:37:03;;;;;;;10.47;6.87;;;10.80;99.90;;;;;;5055935;28;20428;-75
2023/03/21 07:39:31;;;;;;;10.07;6.30;;;10.80;99.90;;;;;;5053595;28;20474;-75
2023/03/21 07:41:57;;;;;;;11.97;6.30;;;10.80;99.90;;;;;;5051288;28;20459;-75
2023/03/21 07:44:23;;;;;;;13.10;6.47;;;10.70;99.90;;;;;;5051288;28;20536;-76
2023/03/21 07:46:49;;;;;;;12.23;6.77;;;10.80;99.90;;;;;;5051548;28;20579;-76
2023/03/21 07:49:15;;;;;;;13.80;6.80;;;10.80;99.90;;;;;;5034794;28;20426;-75
2023/03/21 07:51:41;;;;;;;9.40;7.10;;;10.70;99.90;;;;;;5052708;28;20648;-75
2023/03/21 07:54:06;;;;;;;9.70;5.93;;;10.80;99.90;;;;;;5052724;28;20198;-75
2023/03/21 07:56:32;;;;;;;15.37;6.60;;;10.80;99.90;;;;;;5051539;28;20422;-76
2023/03/21 07:58:58;;;;;;;13.60;6.97;;;10.80;99.90;;;;;;5051204;28;20190;-76
2023/03/21 08:01:25;;;;;;;10.10;6.43;;;10.70;99.90;;;;;;5052614;28;20174;-75
2023/03/21 08:03:52;;;;;;;9.10;6.67;;;10.80;99.90;;;;;;5052414;28;20205;-75
2023/03/21 08:06:22;;;;;;;12.33;6.73;;;10.80;99.90;;;;;;5052485;28;20488;-76
2023/03/21 08:08:47;;;;;;;11.77;6.80;;;10.90;99.90;;;;;;5052529;28;20419;-75
2023/03/21 08:11:13;;;;;;;14.80;6.50;;;10.80;99.90;;;;;;5052390;28;20404;-76
2023/03/21 08:13:39;;;;;;;13.83;6.60;;;10.80;99.90;;;;;;5050766;28;20705;-75
2023/03/21 08:16:07;;;;;;;10.20;6.33;;;10.90;99.90;;;;;;5052331;28;20826;-75
2023/03/21 08:18:33;;;;;;;9.60;6.50;;;10.90;99.90;;;;;;5052072;28;20408;-75
2023/03/21 08:20:58;;;;;;;11.50;6.17;;;10.90;99.90;;;;;;5044485;28;20438;-75
2023/03/21 08:23:24;;;;;;;11.93;6.70;;;10.90;99.90;;;;;;5050592;28;20206;-75
2023/03/21 08:25:54;;;;;;;12.87;6.97;;;10.90;99.90;;;;;;5051036;28;20627;-75
2023/03/21 08:28:20;;;;;;;13.40;7.50;;;10.90;99.90;;;;;;5051933;28;20438;-75
2023/03/21 08:30:46;;;;;;;10.90;7.40;;;10.90;99.90;;;;;;5051930;28;20410;-75
2023/03/21 08:33:12;;;;;;;12.20;6.43;;;11.00;99.90;;;;;;5051844;28;20432;-76
2023/03/21 08:35:39;;;;;;;10.57;8.00;;;11.00;99.90;;;;;;5051797;28;20454;-76
2023/03/21 08:38:05;;;;;;;11.30;6.93;;;11.00;99.90;;;;;;5050508;28;20188;-76
2023/03/21 08:40:31;;;;;;;10.57;6.07;;;11.00;99.90;;;;;;5051050;28;20413;-75
2023/03/21 08:42:57;;;;;;;10.80;7.23;;;11.00;99.90;;;;;;5031631;28;20449;-75
2023/03/21 08:45:24;;;;;;;11.77;8.20;;;11.00;99.90;;;;;;5036151;28;21084;-75
2023/03/21 08:47:50;;;;;;;10.93;6.90;;;11.10;99.90;;;;;;5051651;28;20440;-75
2023/03/21 08:50:21;;;;;;;10.90;6.80;;;11.10;99.90;;;;;;5049935;28;20416;-75
2023/03/21 08:52:47;;;;;;;10.00;6.10;;;11.10;99.90;;;;;;5031196;28;20413;-75
2023/03/21 08:55:15;;;;;;;12.23;6.87;;;11.20;99.90;;;;;;5031413;28;20417;-76
2023/03/21 08:57:41;;;;;;;7.50;6.70;;;11.30;99.90;;;;;;5031690;28;20982;-75
2023/03/21 09:00:12;;;;;;;13.63;6.83;;;11.30;99.90;;;;;;5031417;28;20418;-75
2023/03/21 09:02:37;;;;;;;9.30;6.60;;;11.30;99.90;;;;;;5031335;28;20511;-75
2023/03/21 09:05:04;;;;;;;9.83;6.77;;;11.20;99.90;;;;;;5029678;28;20433;-76
2023/03/21 09:07:32;;;;;;;12.20;6.37;;;11.30;99.90;;;;;;5031275;28;20413;-76
2023/03/21 09:09:59;;;;;;;9.43;6.17;;;11.30;99.90;;;;;;5030024;28;20438;-75
2023/03/21 09:12:25;;;;;;;9.40;5.80;;;11.20;99.90;;;;;;5029732;28;20476;-75
2023/03/21 09:14:52;;;;;;;9.47;5.90;;;11.20;99.90;;;;;;5029956;28;20432;-76
2023/03/21 09:17:18;;;;;;;8.33;5.40;;;11.20;99.90;;;;;;5031139;28;20525;-76
2023/03/21 09:19:45;;;;;;;7.00;6.10;;;11.20;99.90;;;;;;5029759;28;20488;-75
2023/03/21 09:22:16;;;;;;;11.57;7.10;;;11.30;99.90;;;;;;5030971;28;20456;-76
2023/03/21 09:24:45;;;;;;;12.73;8.37;;;11.30;99.90;;;;;;5030802;28;20513;-75
2023/03/21 09:27:11;;;;;;;9.90;7.90;;;11.20;99.90;;;;;;5030885;28;20409;-76
2023/03/21 09:29:36;;;;;;;11.60;7.73;;;11.20;99.90;;;;;;5030963;28;20439;-76
2023/03/21 09:32:04;;;;;;;10.33;7.63;;;11.20;99.90;;;;;;5030826;28;20421;-76
2023/03/21 09:34:30;;;;;;;8.70;7.80;;;11.30;99.90;;;;;;5038272;28;20201;-75
2023/03/21 09:36:56;;;;;;;10.87;7.33;;;11.30;99.90;;;;;;5047259;28;20414;-76
2023/03/21 09:39:23;;;;;;;8.43;6.50;;;11.30;99.90;;;;;;5038447;28;20473;-76
2023/03/21 09:42:00;;;;;;;7.83;6.60;;;11.30;99.90;;;;;;5031801;28;20419;-75
2023/03/21 09:44:32;;;;;;;9.33;6.23;;;11.30;99.90;;;;;;5030398;28;20808;-76
2023/03/21 09:47:19;;;;;;;9.70;6.77;;;11.30;99.90;;;;;;5030360;28;20417;-75
2023/03/21 09:49:50;;;;;;;7.80;6.07;;;11.00;99.90;;;;;;5030278;28;20405;-76
2023/03/21 09:52:33;;;;;;;9.63;6.30;;;11.30;99.90;;;;;;5045878;28;21095;-76
2023/03/21 09:54:59;;;;;;;7.27;6.17;;;11.30;99.90;;;;;;5030287;28;20961;-76
2023/03/21 09:57:36;;;;;;;9.70;6.20;;;11.30;99.90;;;;;;5029731;28;20440;-76
2023/03/21 10:00:18;;;;;;;8.00;5.33;;;11.30;99.90;;;;;;5029717;28;20476;-76
2023/03/21 10:02:48;;;;;;;11.97;5.67;;;11.30;99.90;;;;;;5029446;28;20548;-76
2023/03/21 10:05:24;;;;;;;10.57;5.63;;;11.30;99.90;;;;;;5011947;28;20421;-76
2023/03/21 10:08:03;;;;;;;7.37;5.10;;;11.40;99.90;;;;;;5045428;28;20929;-76
2023/03/21 10:10:36;;;;;;;10.77;5.50;;;11.30;99.90;;;;;;5030231;28;20920;-76
2023/03/21 10:13:03;;;;;;;6.53;5.10;;;11.40;99.90;;;;;;5029910;28;20468;-76
2023/03/21 10:15:29;;;;;;;5.97;5.10;;;11.40;99.90;;;;;;5030102;28;20921;-76
2023/03/21 10:18:01;;;;;;;8.80;5.20;;;11.40;99.90;;;;;;5030118;28;20452;-76
2023/03/21 10:20:32;;;;;;;6.13;5.10;;;11.40;99.90;;;;;;5030072;28;20186;-76
2023/03/21 10:23:01;;;;;;;5.43;4.87;;;11.50;99.90;;;;;;5029963;28;20457;-76
2023/03/21 10:25:32;;;;;;;7.10;4.83;;;11.50;99.90;;;;;;5030144;28;20410;-76
2023/03/21 10:27:59;;;;;;;8.43;5.23;;;11.50;99.90;;;;;;5030231;28;20799;-76
2023/03/21 10:31:00;;;;;;;9.00;4.40;;;11.50;99.90;;;;;;5028758;28;20914;-76
2023/03/21 10:33:32;;;;;;;7.37;4.30;;;11.50;99.90;;;;;;5029775;28;20448;-76
2023/03/21 10:36:09;;;;;;;11.10;4.60;;;11.60;99.90;;;;;;5028522;28;20420;-75
2023/03/21 10:38:37;;;;;;;8.40;4.27;;;11.60;99.90;;;;;;5029972;28;20674;-76
2023/03/21 10:41:02;;;;;;;7.20;4.00;;;11.60;99.90;;;;;;5030055;28;20424;-76
2023/03/21 10:43:37;;;;;;;6.83;4.17;;;11.60;99.90;;;;;;5029789;28;20465;-75
2023/03/21 10:46:22;;;;;;;8.20;3.87;;;11.60;99.90;;;;;;5030141;28;20174;-75
2023/03/21 10:48:52;;;;;;;6.63;4.10;;;11.60;99.90;;;;;;5029980;28;20419;-76
2023/03/21 10:51:27;;;;;;;11.80;4.73;;;11.60;99.90;;;;;;5028725;28;20418;-75
2023/03/21 10:54:14;;;;;;;6.67;4.30;;;11.60;99.90;;;;;;5029949;28;20440;-75
2023/03/21 10:56:48;;;;;;;5.53;4.03;;;11.60;99.90;;;;;;5029793;28;20420;-75
2023/03/21 10:59:19;;;;;;;6.17;3.80;;;11.60;99.90;;;;;;5028809;28;20428;-76
2023/03/21 11:01:51;;;;;;;8.10;3.80;;;11.60;99.90;;;;;;5028608;28;20801;-75
2023/03/21 11:04:23;;;;;;;7.00;3.60;;;11.60;99.90;;;;;;5029684;28;20429;-76
2023/03/21 11:06:55;;;;;;;4.50;3.80;;;11.60;99.90;;;;;;5029945;28;20414;-75
2023/03/21 11:09:24;;;;;;;6.60;3.90;;;11.70;99.90;;;;;;5028772;28;20389;-75
2023/03/21 11:12:17;;;;;;;3.97;3.43;;;11.70;99.90;;;;;;5029813;28;20906;-75
2023/03/21 11:14:45;;;;;;;6.07;4.20;;;11.70;99.90;;;;;;5046964;28;20433;-75
2023/03/21 11:17:16;;;;;;;6.23;4.17;;;11.80;99.90;;;;;;5033555;28;20831;-76
2023/03/21 11:19:48;;;;;;;7.73;3.73;;;11.80;99.90;;;;;;5032273;28;20456;-76
2023/03/21 11:22:15;;;;;;;7.10;4.07;;;11.80;99.90;;;;;;5033348;28;20492;-75
2023/03/21 11:24:43;;;;;;;5.50;3.60;;;11.80;99.90;;;;;;5033469;28;20441;-76
2023/03/21 11:27:08;;;;;;;5.63;3.70;;;11.80;99.90;;;;;;5033447;28;20409;-76
2023/03/21 11:29:40;;;;;;;7.80;3.73;;;11.80;99.90;;;;;;5033340;28;20876;-76
2023/03/21 11:32:25;;;;;;;8.60;4.13;;;11.80;99.90;;;;;;5033367;28;20182;-76
2023/03/21 11:34:56;;;;;;;6.90;4.30;;;11.80;99.90;;;;;;5033276;28;20435;-76
2023/03/21 11:37:45;;;;;;;5.33;3.40;;;11.90;99.90;;;;;;5033315;28;20467;-76
2023/03/21 11:40:33;;;;;;;6.43;4.13;;;11.90;99.90;;;;;;5033284;28;20417;-75
2023/03/21 11:42:58;;;;;;;4.97;3.70;;;11.90;99.90;;;;;;5033103;28;20503;-75
2023/03/21 11:45:27;;;;;;;8.57;4.27;;;11.90;99.90;;;;;;5033345;28;20406;-76
2023/03/21 11:47:58;;;;;;;6.67;3.30;;;11.90;99.90;;;;;;5032950;28;20174;-75
2023/03/21 11:50:41;;;;;;;10.30;3.80;;;11.90;99.90;;;;;;5033345;28;20956;-75
2023/03/21 11:53:31;;;;;;;8.57;3.97;;;11.90;99.90;;;;;;5031769;28;20437;-76
2023/03/21 11:56:08;;;;;;;8.00;4.13;;;11.90;99.90;;;;;;5033020;28;20957;-75
2023/03/21 11:58:48;;;;;;;4.30;3.30;;;12.00;99.90;;;;;;5031570;28;20416;-75
2023/03/21 12:01:49;;;;;;;8.10;3.40;;;12.00;99.90;;;;;;5048385;28;20401;-76
2023/03/21 12:04:33;;;;;;;7.50;3.63;;;12.00;99.90;;;;;;5032158;28;20454;-75
2023/03/21 12:06:58;;;;;;;6.13;3.60;;;12.10;99.90;;;;;;5032966;28;20397;-75
2023/03/21 12:09:36;;;;;;;6.17;3.00;;;12.00;99.90;;;;;;5032793;28;21131;-75
2023/03/21 12:12:31;;;;;;;5.73;3.63;;;12.00;99.90;;;;;;5031530;28;20186;-76
2023/03/21 12:14:57;;;;;;;5.47;3.73;;;12.10;99.90;;;;;;5032732;28;20444;-75
2023/03/21 12:17:33;;;;;;;5.40;3.80;;;12.20;99.90;;;;;;5032761;28;20397;-75
2023/03/21 12:20:08;;;;;;;4.33;3.30;;;12.20;99.90;;;;;;5033635;28;20174;-76
2023/03/21 12:22:44;;;;;;;5.20;3.57;;;12.30;99.90;;;;;;5051002;28;20816;-75
2023/03/21 12:25:26;;;;;;;6.57;3.30;;;12.20;99.90;;;;;;5052427;28;20408;-75
2023/03/21 12:28:25;;;;;;;4.67;2.67;;;12.30;99.90;;;;;;5043952;28;20412;-75
2023/03/21 12:31:11;;;;;;;7.47;3.90;;;12.20;99.90;;;;;;5032678;28;20409;-75
2023/03/21 12:34:01;;;;;;;4.00;3.50;;;12.20;99.90;;;;;;5032301;28;20953;-76
2023/03/21 12:36:50;;;;;;;6.03;3.50;;;12.20;99.90;;;;;;5048354;28;20840;-75
2023/03/21 12:39:31;;;;;;;5.30;3.43;;;12.20;99.90;;;;;;5051014;28;20407;-75
2023/03/21 12:42:07;;;;;;;4.27;3.10;;;12.20;99.90;;;;;;5050881;28;20408;-75
2023/03/21 12:44:38;;;;;;;5.23;3.43;;;12.20;99.90;;;;;;5052077;28;20902;-75
2023/03/21 12:47:11;;;;;;;5.30;3.40;;;12.20;99.90;;;;;;5051755;28;20852;-76
2023/03/21 12:49:49;;;;;;;7.27;3.20;;;12.20;99.90;;;;;;5050645;28;20931;-76
2023/03/21 12:52:26;;;;;;;4.97;3.20;;;12.30;99.90;;;;;;5050508;28;20419;-75
2023/03/21 12:54:59;;;;;;;5.07;3.47;;;12.30;99.90;;;;;;5051755;28;20459;-75
2023/03/21 12:57:37;;;;;;;5.87;3.00;;;12.20;99.90;;;;;;5051718;28;20929;-76